Etusivu
METAR-TAF:

METAR-TAF

Lentoasemat :

Mendoza, Argentiina

Leveyspiiri: 32-50S, Pituuspiiri: 068-47W, korkeus merenpinnasta: 705 m

Tämänhetkinen sää

Tämä raportti tehtiin 48 minuuttia sitten, kello 02.00 UTC
Tuuli 3 kn lounaasta
Lämpötila 31°C
Kosteus 33%
Ilmanpaine 1005 hPa
Näkyvyys 10 km tai enemmän
ei pilviä alle 1500 m:ssä eikä cumulonimbus-pilviä

METAR: SAME 110200Z 23003KT CAVOK 31/13 Q1005

Aika: 23:48 (02:48 UTC)

Sääennuste

Tämä raportti tehtiin 3 tuntia ja 48 minuuttia sitten, kello 23.00 UTC
Ennuste voimassa 11. päivästä klo 00 UTC - 11. päivään klo 24 UTC
Tuuli 10 kn etelästä
Näkyvyys 10 km tai enemmän
Muutamia pilviä 4000 ft:n korkeudessa
Muutamia pilviä 4000 ft:n korkeudessa

TAF: SAME 102300Z 1100/1124 05005KT 9999 FEW040 TX33/1120Z TN18/1110Z 1112/1114 18010KT 9999 FEW040

Säähavainnot ja -ennusteet yli 4000 lentoasemalta (METAR- ja TAF-raportit).

Käytössä olevat sääasemat on merkitty karttaan keltaisilla ja punaisilla pisteillä.

Aseta hiiri pisteen päälle nähdäksesi sääaseman nimen.

Klikkaa sitten nähdäksesi säähavainnot ja -ennusteet.

Kartan vaihtaminen: klikkaa mustalla rastilla varustettuja vihreitä pisteitä, niin voit zoomata sisään; viivalla varustettua vihreää pistettä, niin voit zoomata ulos tai vihreitä nuolia, niin pääset viereisille kartoille.


METAR-TAF: